Time,TemperatureF,DewpointF,PressureIn,WindDirection,WindDirectionDegrees,WindSpeedMPH,WindSpeedGustMPH,Humidity,HourlyPrecipIn,Conditions,Clouds,dailyrainin,SoftwareType,DateUTC
2013-11-16 00:22:00,52.0,51.0,30.13,ESE,106,2.0,-999.0,97,-99.99,,,0.00,,2013-11-16 06:22:00,
2013-11-16 00:52:00,52.0,51.0,30.12,ESE,108,3.0,-999.0,97,-99.99,,,0.00,,2013-11-16 06:52:00,
2013-11-16 01:22:00,52.0,51.0,30.12,ESE,105,3.0,-999.0,97,-99.99,,,0.00,,2013-11-16 07:22:00,
2013-11-16 01:42:00,52.0,51.0,30.13,SSE,147,3.0,-999.0,97,-99.99,,,0.00,,2013-11-16 07:42:00,
2013-11-16 01:52:00,52.0,51.0,30.12,SE,127,3.0,-999.0,97,-99.99,,,0.00,,2013-11-16 07:52:00,
2013-11-16 02:22:00,52.0,51.0,30.11,ESE,114,3.0,-999.0,97,-99.99,,,0.00,,2013-11-16 08:22:00,
2013-11-16 02:52:00,52.0,51.0,30.11,ESE,111,3.0,-999.0,97,-99.99,,,0.00,,2013-11-16 08:52:00,
2013-11-16 03:11:00,52.0,51.0,30.11,ESE,106,2.0,-999.0,97,-99.99,,,0.00,,2013-11-16 09:11:00,
2013-11-16 03:22:00,53.0,52.0,30.11,ESE,107,2.0,-999.0,97,-99.99,,,0.00,,2013-11-16 09:22:00,
2013-11-16 03:42:00,53.0,52.0,30.12,ESE,120,2.0,-999.0,96,-99.99,,,0.00,,2013-11-16 09:42:00,
2013-11-16 03:53:00,53.0,52.0,30.12,South,172,2.0,-999.0,96,-99.99,,,0.00,,2013-11-16 09:53:00,
2013-11-16 04:23:00,53.0,52.0,30.12,SE,127,2.0,-999.0,96,-99.99,,,0.00,,2013-11-16 10:23:00,
2013-11-16 04:43:00,53.0,52.0,30.12,ESE,108,2.0,-999.0,97,-99.99,,,0.00,,2013-11-16 10:43:00,
2013-11-16 04:52:00,53.0,52.0,30.12,SSE,147,2.0,-999.0,97,-99.99,,,0.00,,2013-11-16 10:52:00,
2013-11-16 05:22:00,53.0,52.0,30.12,ESE,120,2.0,-999.0,97,-99.99,,,0.00,,2013-11-16 11:22:00,
2013-11-16 05:42:00,53.0,52.0,30.12,SSE,149,3.0,-999.0,97,-99.99,,,0.00,,2013-11-16 11:42:00,
2013-11-16 05:53:00,54.0,53.0,30.12,East,80,2.0,-999.0,96,-99.99,,,0.00,,2013-11-16 11:53:00,
2013-11-16 06:12:00,54.0,53.0,30.13,ESE,117,3.0,-999.0,96,-99.99,,,0.00,,2013-11-16 12:12:00,
2013-11-16 06:21:00,54.0,53.0,30.13,ENE,60,3.0,-999.0,96,-99.99,,,0.00,,2013-11-16 12:21:00,
2013-11-16 06:42:00,54.0,53.0,30.13,East,95,3.0,-999.0,96,-99.99,,,0.00,,2013-11-16 12:42:00,
2013-11-16 06:52:00,54.0,53.0,30.13,East,92,2.0,-999.0,96,-99.99,,,0.00,,2013-11-16 12:52:00,
2013-11-16 07:11:00,54.0,53.0,30.13,ESE,120,3.0,-999.0,96,-99.99,,,0.00,,2013-11-16 13:11:00,
2013-11-16 07:22:00,54.0,53.0,30.14,East,85,3.0,-999.0,96,-99.99,,,0.00,,2013-11-16 13:22:00,
2013-11-16 07:42:00,54.0,53.0,30.14,ESE,102,3.0,-999.0,96,-99.99,,,0.00,,2013-11-16 13:42:00,
2013-11-16 07:52:00,55.0,54.0,30.14,East,82,3.0,-999.0,95,-99.99,,,0.00,,2013-11-16 13:52:00,
2013-11-16 08:11:00,55.0,54.0,30.14,East,92,4.0,-999.0,95,-99.99,,,0.00,,2013-11-16 14:11:00,
2013-11-16 08:22:00,56.0,54.0,30.14,SE,141,4.0,-999.0,94,-99.99,,,0.00,,2013-11-16 14:22:00,
2013-11-16 08:42:00,57.0,55.0,30.15,East,81,3.0,-999.0,92,-99.99,,,0.00,,2013-11-16 14:42:00,
2013-11-16 08:52:00,58.0,55.0,30.14,East,85,4.0,-999.0,91,-99.99,,,0.00,,2013-11-16 14:52:00,
2013-11-16 09:21:00,59.0,56.0,30.14,SE,131,3.0,-999.0,90,-99.99,,,0.00,,2013-11-16 15:21:00,
2013-11-16 09:43:00,59.0,56.0,30.14,ENE,78,3.0,-999.0,90,-99.99,,,0.00,,2013-11-16 15:43:00,
2013-11-16 09:53:00,61.0,57.0,30.14,SE,129,3.0,-999.0,87,-99.99,,,0.00,,2013-11-16 15:53:00,
2013-11-16 10:23:00,65.0,59.0,30.13,SSE,164,6.0,-999.0,80,-99.99,,,0.00,,2013-11-16 16:23:00,
2013-11-16 10:43:00,63.0,58.0,30.12,ESE,107,4.0,-999.0,83,-99.99,,,0.00,,2013-11-16 16:43:00,
2013-11-16 10:53:00,63.0,58.0,30.11,ESE,112,3.0,-999.0,84,-99.99,,,0.00,,2013-11-16 16:53:00,
2013-11-16 11:22:00,62.0,57.0,30.11,South,177,4.0,-999.0,84,-99.99,,,0.00,,2013-11-16 17:22:00,
2013-11-16 11:43:00,63.0,59.0,30.09,ESE,112,4.0,-999.0,86,-99.99,,,0.00,,2013-11-16 17:43:00,
2013-11-16 11:52:00,65.0,59.0,30.08,SE,131,4.0,-999.0,82,-99.99,,,0.00,,2013-11-16 17:52:00,
2013-11-16 12:23:00,67.0,60.0,30.07,East,88,5.0,-999.0,77,-99.99,,,0.00,,2013-11-16 18:23:00,
2013-11-16 12:42:00,67.0,60.0,30.06,East,93,5.0,-999.0,77,-99.99,,,0.00,,2013-11-16 18:42:00,
2013-11-16 12:52:00,66.0,59.0,30.05,SE,136,3.0,-999.0,79,-99.99,,,0.00,,2013-11-16 18:52:00,
2013-11-16 13:22:00,66.0,60.0,30.03,ESE,114,5.0,-999.0,80,-99.99,,,0.00,,2013-11-16 19:22:00,
2013-11-16 13:42:00,67.0,60.0,30.03,SE,134,4.0,-999.0,78,-99.99,,,0.00,,2013-11-16 19:42:00,
2013-11-16 13:53:00,66.0,60.0,30.03,East,100,4.0,-999.0,80,-99.99,,,0.00,,2013-11-16 19:53:00,
2013-11-16 14:22:00,65.0,59.0,30.02,SSE,153,4.0,-999.0,82,-99.99,,,0.00,,2013-11-16 20:22:00,
2013-11-16 14:42:00,65.0,59.0,30.02,ENE,69,3.0,-999.0,82,-99.99,,,0.00,,2013-11-16 20:42:00,
2013-11-16 15:21:00,66.0,60.0,30.01,South,191,3.0,-999.0,82,-99.99,,,0.00,,2013-11-16 21:21:00,
2013-11-16 15:44:00,66.0,60.0,30.01,SSE,150,4.0,-999.0,81,-99.99,,,0.00,,2013-11-16 21:44:00,
2013-11-16 15:54:00,66.0,60.0,30.02,South,179,3.0,-999.0,81,-99.99,,,0.00,,2013-11-16 21:54:00,
2013-11-16 16:24:00,65.0,60.0,30.03,ENE,77,2.0,-999.0,83,-99.99,,,0.00,,2013-11-16 22:24:00,
2013-11-16 16:42:00,65.0,60.0,30.03,SE,138,3.0,-999.0,83,-99.99,,,0.00,,2013-11-16 22:42:00,
2013-11-16 16:53:00,65.0,60.0,30.02,SE,136,3.0,-999.0,84,-99.99,,,0.00,,2013-11-16 22:53:00,
2013-11-16 17:22:00,65.0,60.0,30.03,SE,132,4.0,-999.0,84,-99.99,,,0.00,,2013-11-16 23:22:00,
2013-11-16 17:43:00,65.0,60.0,30.03,ESE,116,3.0,-999.0,84,-99.99,,,0.00,,2013-11-16 23:43:00,
2013-11-16 17:53:00,64.0,59.0,30.04,SE,145,3.0,-999.0,85,-99.99,,,0.00,,2013-11-16 23:53:00,
2013-11-16 18:12:00,64.0,60.0,30.03,SSE,154,3.0,-999.0,86,-99.99,,,0.00,,2013-11-17 00:12:00,
2013-11-16 18:22:00,64.0,60.0,30.03,ENE,70,3.0,-999.0,86,-99.99,,,0.00,,2013-11-17 00:22:00,
2013-11-16 18:42:00,64.0,60.0,30.03,ESE,113,3.0,-999.0,86,-99.99,,,0.00,,2013-11-17 00:42:00,
2013-11-16 18:52:00,64.0,59.0,30.04,NE,50,4.0,-999.0,85,-99.99,,,0.00,,2013-11-17 00:52:00,
2013-11-16 19:22:00,64.0,59.0,30.05,SW,232,4.0,-999.0,85,-99.99,,,0.00,,2013-11-17 01:22:00,
2013-11-16 19:52:00,64.0,59.0,30.05,ESE,116,5.0,-999.0,85,-99.99,,,0.00,,2013-11-17 01:52:00,
2013-11-16 20:22:00,64.0,59.0,30.05,ESE,122,3.0,-999.0,85,-99.99,,,0.00,,2013-11-17 02:22:00,
2013-11-16 20:52:00,64.0,59.0,30.05,ESE,111,4.0,-999.0,84,-99.99,,,0.00,,2013-11-17 02:52:00,
2013-11-16 21:22:00,64.0,59.0,30.04,ESE,108,3.0,-999.0,83,-99.99,,,0.00,,2013-11-17 03:22:00,
2013-11-16 21:56:00,64.0,59.0,30.03,ESE,116,4.0,-999.0,84,-99.99,,,0.00,,2013-11-17 03:56:00,
2013-11-16 22:03:00,-999.0,-99.9,30.04,SSE,150,4.0,-999.0,-999,-99.99,,,-99.99,,2013-11-17 04:03:00,
2013-11-16 22:24:00,64.0,59.0,30.03,SE,129,4.0,-999.0,85,-99.99,,,0.00,,2013-11-17 04:24:00,
2013-11-16 22:43:00,64.0,59.0,30.03,ESE,118,3.0,-999.0,85,-99.99,,,0.00,,2013-11-17 04:43:00,
2013-11-16 22:53:00,64.0,59.0,30.03,NE,50,3.0,-999.0,85,-99.99,,,0.00,,2013-11-17 04:53:00,
2013-11-16 23:23:00,64.0,59.0,30.02,SSE,153,3.0,-999.0,85,-99.99,,,0.00,,2013-11-17 05:23:00,
2013-11-16 23:53:00,64.0,59.0,30.01,East,97,3.0,-999.0,85,-99.99,,,0.00,,2013-11-17 05:53:00,